Altmar, NY

9:42 PM EST on February 07, 2016 (GMT -0500)
Lorton Lake Back End | | Change Station
CLOSE
Current Station
Personal Weather Station
Location: Altmar, NY
Elevation: 870 ft
Nearby Weather Stations

Elev 870 ft 43.50 °N, 75.89 °W | Updated 12 minutes ago

Mostly Cloudy
Mostly Cloudy
32.8 °F
Feels Like 33 °F
N
0.0
Wind Variable Wind from NE

Today
High -- | Low -- °F
--% Chance of Precip.
Yesterday
High -- | Low -- °F
Precip. -- in
Pressure 29.97 in
Visibility 10.0 miles
Clouds Clear
Windchill 33 °F
Dew Point 23 °F
Humidity 67%
Rainfall 0.00 in
Snow Depth Not available.
7:13 AM 5:23 PM
Waning Crescent, 0% visible
METAR KFZY 080154Z AUTO 10004KT 10SM CLR 03/M04 A2995 RMK AO2 SLP147 T00331044
Pressure 29.97 in
Visibility 10.0 miles
Clouds Clear
Windchill 33 °F
Dew Point 23 °F
Humidity 67%
Rainfall 0.00 in
Snow Depth Not available.
7:13 AM 5:23 PM
Waning Crescent, 0% visible
METAR KFZY 080154Z AUTO 10004KT 10SM CLR 03/M04 A2995 RMK AO2 SLP147 T00331044

10-Day Weather Forecast

Almanac

Astronomy

Feb. 07, 2016 Rise Set
Actual Time
Civil Twilight
Nautical Twilight
Astronomical Twilight
Moon
Length of Visible Light
Length of Day
Tomorrow will be .
, % of the Moon is Illuminated

Today's Extremes

State Highs State Lows

Community

WunderPhotos

Upload Photos

1,891,373 photos uploaded!

WunderBlog® & News

Nearby

Air Quality

  Air Quality AQ Index Pollutant
Not available.

Snow Depth

Station Depth Elevation

Earthquake Activity

City Distance Mag. Time & Date
Minimum magnitude displayed is 2.5.

Coastal Water Temperatures

Place Temperature

Stations

Nearby Weather Stations

Station Location Temp. Windchill Dew Point Humidity Wind Precip. Elev Updated Type
                   

Watches & Warnings

There are currently no watches in effect.